sensor_id;sensor_type;location;lat;lon;timestamp;P1;durP1;ratioP1;P2;durP2;ratioP2
67819;SDS011;54618;52.018;5.576;2024-03-08T00:00:13;30.52;;;12.20;;
67819;SDS011;54618;52.018;5.576;2024-03-08T00:02:46;26.60;;;11.90;;
67819;SDS011;54618;52.018;5.576;2024-03-08T00:05:12;26.95;;;11.85;;
67819;SDS011;54618;52.018;5.576;2024-03-08T00:07:39;30.25;;;12.30;;
67819;SDS011;54618;52.018;5.576;2024-03-08T00:10:05;29.00;;;11.63;;
67819;SDS011;54618;52.018;5.576;2024-03-08T00:12:36;31.15;;;11.52;;
67819;SDS011;54618;52.018;5.576;2024-03-08T00:15:09;26.20;;;10.50;;
67819;SDS011;54618;52.018;5.576;2024-03-08T00:17:36;27.67;;;11.30;;
67819;SDS011;54618;52.018;5.576;2024-03-08T00:20:03;27.85;;;11.15;;
67819;SDS011;54618;52.018;5.576;2024-03-08T00:22:33;27.50;;;11.40;;
67819;SDS011;54618;52.018;5.576;2024-03-08T00:25:05;31.55;;;12.23;;
67819;SDS011;54618;52.018;5.576;2024-03-08T00:27:33;29.63;;;12.05;;
67819;SDS011;54618;52.018;5.576;2024-03-08T00:29:59;27.90;;;12.02;;
67819;SDS011;54618;52.018;5.576;2024-03-08T00:32:26;26.75;;;11.38;;
67819;SDS011;54618;52.018;5.576;2024-03-08T00:34:58;30.67;;;12.32;;
67819;SDS011;54618;52.018;5.576;2024-03-08T00:37:24;32.22;;;12.38;;
67819;SDS011;54618;52.018;5.576;2024-03-08T00:39:50;28.23;;;12.13;;
67819;SDS011;54618;52.018;5.576;2024-03-08T00:42:16;29.40;;;11.75;;
67819;SDS011;54618;52.018;5.576;2024-03-08T00:44:42;28.92;;;11.88;;
67819;SDS011;54618;52.018;5.576;2024-03-08T00:47:08;27.33;;;11.80;;
67819;SDS011;54618;52.018;5.576;2024-03-08T00:49:34;27.75;;;13.05;;
67819;SDS011;54618;52.018;5.576;2024-03-08T00:52:02;34.10;;;12.02;;
67819;SDS011;54618;52.018;5.576;2024-03-08T00:54:28;29.05;;;11.50;;
67819;SDS011;54618;52.018;5.576;2024-03-08T00:56:53;28.27;;;12.85;;
67819;SDS011;54618;52.018;5.576;2024-03-08T00:59:19;30.10;;;12.30;;
67819;SDS011;54618;52.018;5.576;2024-03-08T01:01:45;30.23;;;11.85;;
67819;SDS011;54618;52.018;5.576;2024-03-08T01:04:11;27.65;;;12.07;;
67819;SDS011;54618;52.018;5.576;2024-03-08T01:06:36;30.15;;;11.80;;
67819;SDS011;54618;52.018;5.576;2024-03-08T01:09:02;29.55;;;11.73;;
67819;SDS011;54618;52.018;5.576;2024-03-08T01:11:28;30.65;;;12.52;;
67819;SDS011;54618;52.018;5.576;2024-03-08T01:13:53;26.33;;;11.82;;
67819;SDS011;54618;52.018;5.576;2024-03-08T01:16:19;31.50;;;12.38;;
67819;SDS011;54618;52.018;5.576;2024-03-08T01:18:46;31.65;;;11.48;;
67819;SDS011;54618;52.018;5.576;2024-03-08T01:21:12;27.88;;;12.30;;
67819;SDS011;54618;52.018;5.576;2024-03-08T01:23:38;28.40;;;11.88;;
67819;SDS011;54618;52.018;5.576;2024-03-08T01:26:03;26.65;;;11.73;;
67819;SDS011;54618;52.018;5.576;2024-03-08T01:28:29;27.05;;;12.02;;
67819;SDS011;54618;52.018;5.576;2024-03-08T01:30:56;28.73;;;12.23;;
67819;SDS011;54618;52.018;5.576;2024-03-08T01:33:25;26.98;;;12.05;;
67819;SDS011;54618;52.018;5.576;2024-03-08T01:35:52;27.95;;;12.18;;
67819;SDS011;54618;52.018;5.576;2024-03-08T01:38:21;29.10;;;11.95;;
67819;SDS011;54618;52.018;5.576;2024-03-08T01:40:47;31.95;;;13.18;;
67819;SDS011;54618;52.018;5.576;2024-03-08T01:43:26;27.13;;;12.45;;
67819;SDS011;54618;52.018;5.576;2024-03-08T01:45:58;31.50;;;11.77;;
67819;SDS011;54618;52.018;5.576;2024-03-08T01:48:30;26.08;;;11.85;;
67819;SDS011;54618;52.018;5.576;2024-03-08T01:50:59;29.45;;;12.20;;
67819;SDS011;54618;52.018;5.576;2024-03-08T01:53:25;29.08;;;12.35;;
67819;SDS011;54618;52.018;5.576;2024-03-08T01:55:52;27.83;;;11.65;;
67819;SDS011;54618;52.018;5.576;2024-03-08T01:58:22;31.67;;;12.35;;
67819;SDS011;54618;52.018;5.576;2024-03-08T02:00:48;29.35;;;11.85;;
67819;SDS011;54618;52.018;5.576;2024-03-08T02:03:15;27.95;;;12.20;;
67819;SDS011;54618;52.018;5.576;2024-03-08T02:05:41;29.55;;;12.18;;
67819;SDS011;54618;52.018;5.576;2024-03-08T02:08:06;26.33;;;11.23;;
67819;SDS011;54618;52.018;5.576;2024-03-08T02:10:37;30.25;;;11.88;;
67819;SDS011;54618;52.018;5.576;2024-03-08T02:13:03;25.05;;;11.57;;
67819;SDS011;54618;52.018;5.576;2024-03-08T02:18:27;23.67;;;10.77;;
67819;SDS011;54618;52.018;5.576;2024-03-08T02:23:29;24.15;;;11.45;;
67819;SDS011;54618;52.018;5.576;2024-03-08T02:25:58;28.30;;;12.32;;
67819;SDS011;54618;52.018;5.576;2024-03-08T02:28:24;29.33;;;12.52;;
67819;SDS011;54618;52.018;5.576;2024-03-08T02:30:50;27.00;;;12.23;;
67819;SDS011;54618;52.018;5.576;2024-03-08T02:33:19;26.17;;;12.57;;
67819;SDS011;54618;52.018;5.576;2024-03-08T02:35:45;27.70;;;12.13;;
67819;SDS011;54618;52.018;5.576;2024-03-08T02:38:14;26.00;;;12.18;;
67819;SDS011;54618;52.018;5.576;2024-03-08T02:40:45;26.77;;;12.00;;
67819;SDS011;54618;52.018;5.576;2024-03-08T02:43:12;26.75;;;12.38;;
67819;SDS011;54618;52.018;5.576;2024-03-08T02:45:39;27.10;;;12.07;;
67819;SDS011;54618;52.018;5.576;2024-03-08T02:48:06;29.33;;;12.35;;
67819;SDS011;54618;52.018;5.576;2024-03-08T02:50:33;28.48;;;12.25;;
67819;SDS011;54618;52.018;5.576;2024-03-08T02:53:02;25.98;;;12.00;;
67819;SDS011;54618;52.018;5.576;2024-03-08T02:55:28;26.77;;;11.40;;
67819;SDS011;54618;52.018;5.576;2024-03-08T02:57:54;26.48;;;12.55;;
67819;SDS011;54618;52.018;5.576;2024-03-08T03:00:20;27.08;;;11.90;;
67819;SDS011;54618;52.018;5.576;2024-03-08T03:02:48;29.73;;;13.38;;
67819;SDS011;54618;52.018;5.576;2024-03-08T03:05:21;25.20;;;12.65;;
67819;SDS011;54618;52.018;5.576;2024-03-08T03:07:47;28.60;;;13.20;;
67819;SDS011;54618;52.018;5.576;2024-03-08T03:10:13;28.98;;;11.85;;
67819;SDS011;54618;52.018;5.576;2024-03-08T03:12:45;27.67;;;13.03;;
67819;SDS011;54618;52.018;5.576;2024-03-08T03:15:14;27.90;;;12.63;;
67819;SDS011;54618;52.018;5.576;2024-03-08T03:17:45;27.23;;;12.02;;
67819;SDS011;54618;52.018;5.576;2024-03-08T03:20:11;27.95;;;12.65;;
67819;SDS011;54618;52.018;5.576;2024-03-08T03:22:47;26.58;;;12.35;;
67819;SDS011;54618;52.018;5.576;2024-03-08T03:25:16;29.90;;;12.55;;
67819;SDS011;54618;52.018;5.576;2024-03-08T03:27:54;27.40;;;12.18;;
67819;SDS011;54618;52.018;5.576;2024-03-08T03:30:23;26.38;;;12.45;;
67819;SDS011;54618;52.018;5.576;2024-03-08T03:32:51;30.73;;;13.57;;
67819;SDS011;54618;52.018;5.576;2024-03-08T03:35:17;28.70;;;12.75;;
67819;SDS011;54618;52.018;5.576;2024-03-08T03:37:45;28.75;;;12.52;;
67819;SDS011;54618;52.018;5.576;2024-03-08T03:40:26;27.98;;;12.35;;
67819;SDS011;54618;52.018;5.576;2024-03-08T03:42:52;26.50;;;12.15;;
67819;SDS011;54618;52.018;5.576;2024-03-08T03:45:18;26.73;;;12.57;;
67819;SDS011;54618;52.018;5.576;2024-03-08T03:47:45;29.27;;;12.35;;
67819;SDS011;54618;52.018;5.576;2024-03-08T03:50:10;31.80;;;12.73;;
67819;SDS011;54618;52.018;5.576;2024-03-08T03:52:36;28.50;;;12.98;;
67819;SDS011;54618;52.018;5.576;2024-03-08T03:55:02;25.00;;;11.63;;
67819;SDS011;54618;52.018;5.576;2024-03-08T03:57:29;28.10;;;12.88;;
67819;SDS011;54618;52.018;5.576;2024-03-08T03:59:55;28.23;;;12.52;;
67819;SDS011;54618;52.018;5.576;2024-03-08T04:02:23;28.90;;;13.75;;
67819;SDS011;54618;52.018;5.576;2024-03-08T04:04:49;26.17;;;12.02;;
67819;SDS011;54618;52.018;5.576;2024-03-08T04:07:15;29.77;;;12.85;;
67819;SDS011;54618;52.018;5.576;2024-03-08T04:09:40;27.88;;;11.75;;
67819;SDS011;54618;52.018;5.576;2024-03-08T04:12:06;26.27;;;12.27;;
67819;SDS011;54618;52.018;5.576;2024-03-08T04:14:32;27.65;;;12.15;;
67819;SDS011;54618;52.018;5.576;2024-03-08T04:16:59;28.77;;;13.15;;
67819;SDS011;54618;52.018;5.576;2024-03-08T04:19:25;28.35;;;12.27;;
67819;SDS011;54618;52.018;5.576;2024-03-08T04:21:51;33.15;;;13.02;;
67819;SDS011;54618;52.018;5.576;2024-03-08T04:24:17;28.52;;;12.82;;
67819;SDS011;54618;52.018;5.576;2024-03-08T04:26:43;31.20;;;13.25;;
67819;SDS011;54618;52.018;5.576;2024-03-08T04:29:08;32.42;;;12.90;;
67819;SDS011;54618;52.018;5.576;2024-03-08T04:31:34;27.58;;;12.90;;
67819;SDS011;54618;52.018;5.576;2024-03-08T04:33:59;25.73;;;12.43;;
67819;SDS011;54618;52.018;5.576;2024-03-08T04:36:25;28.58;;;11.80;;
67819;SDS011;54618;52.018;5.576;2024-03-08T04:38:50;26.98;;;12.70;;
67819;SDS011;54618;52.018;5.576;2024-03-08T04:41:16;28.88;;;13.23;;
67819;SDS011;54618;52.018;5.576;2024-03-08T04:43:43;28.38;;;12.77;;
67819;SDS011;54618;52.018;5.576;2024-03-08T04:46:09;29.10;;;12.90;;
67819;SDS011;54618;52.018;5.576;2024-03-08T04:48:35;29.40;;;12.80;;
67819;SDS011;54618;52.018;5.576;2024-03-08T04:51:02;29.27;;;13.80;;
67819;SDS011;54618;52.018;5.576;2024-03-08T04:53:29;32.15;;;13.73;;
67819;SDS011;54618;52.018;5.576;2024-03-08T04:55:54;28.25;;;12.63;;
67819;SDS011;54618;52.018;5.576;2024-03-08T04:58:22;31.38;;;13.35;;
67819;SDS011;54618;52.018;5.576;2024-03-08T05:00:48;28.10;;;12.45;;
67819;SDS011;54618;52.018;5.576;2024-03-08T05:03:15;34.05;;;12.57;;
67819;SDS011;54618;52.018;5.576;2024-03-08T05:05:40;32.33;;;13.88;;
67819;SDS011;54618;52.018;5.576;2024-03-08T05:08:06;30.88;;;13.57;;
67819;SDS011;54618;52.018;5.576;2024-03-08T05:10:31;29.38;;;12.45;;
67819;SDS011;54618;52.018;5.576;2024-03-08T05:12:57;28.00;;;12.73;;
67819;SDS011;54618;52.018;5.576;2024-03-08T05:15:23;30.27;;;13.00;;
67819;SDS011;54618;52.018;5.576;2024-03-08T05:17:48;29.88;;;13.00;;
67819;SDS011;54618;52.018;5.576;2024-03-08T05:20:14;30.85;;;12.82;;
67819;SDS011;54618;52.018;5.576;2024-03-08T05:22:42;29.98;;;13.18;;
67819;SDS011;54618;52.018;5.576;2024-03-08T05:25:08;32.55;;;12.98;;
67819;SDS011;54618;52.018;5.576;2024-03-08T05:27:34;27.85;;;11.82;;
67819;SDS011;54618;52.018;5.576;2024-03-08T05:30:03;28.77;;;13.00;;
67819;SDS011;54618;52.018;5.576;2024-03-08T05:32:29;31.30;;;13.10;;
67819;SDS011;54618;52.018;5.576;2024-03-08T05:34:58;30.05;;;13.25;;
67819;SDS011;54618;52.018;5.576;2024-03-08T05:37:24;28.40;;;12.55;;
67819;SDS011;54618;52.018;5.576;2024-03-08T05:39:49;30.60;;;13.32;;
67819;SDS011;54618;52.018;5.576;2024-03-08T05:42:15;29.20;;;13.55;;
67819;SDS011;54618;52.018;5.576;2024-03-08T05:44:40;29.30;;;12.95;;
67819;SDS011;54618;52.018;5.576;2024-03-08T05:47:06;29.95;;;13.48;;
67819;SDS011;54618;52.018;5.576;2024-03-08T05:49:32;30.17;;;12.88;;
67819;SDS011;54618;52.018;5.576;2024-03-08T05:51:59;29.13;;;13.73;;
67819;SDS011;54618;52.018;5.576;2024-03-08T05:54:25;29.83;;;13.10;;
67819;SDS011;54618;52.018;5.576;2024-03-08T05:56:52;36.10;;;14.30;;
67819;SDS011;54618;52.018;5.576;2024-03-08T05:59:18;29.42;;;12.65;;
67819;SDS011;54618;52.018;5.576;2024-03-08T06:01:43;32.72;;;13.82;;
67819;SDS011;54618;52.018;5.576;2024-03-08T06:04:11;31.25;;;13.20;;
67819;SDS011;54618;52.018;5.576;2024-03-08T06:06:36;30.13;;;13.93;;
67819;SDS011;54618;52.018;5.576;2024-03-08T06:09:05;32.17;;;13.55;;
67819;SDS011;54618;52.018;5.576;2024-03-08T06:11:47;27.33;;;12.43;;
67819;SDS011;54618;52.018;5.576;2024-03-08T06:14:13;30.67;;;12.77;;
67819;SDS011;54618;52.018;5.576;2024-03-08T06:16:43;31.48;;;12.80;;
67819;SDS011;54618;52.018;5.576;2024-03-08T06:19:09;32.13;;;14.43;;
67819;SDS011;54618;52.018;5.576;2024-03-08T06:21:35;27.98;;;12.52;;
67819;SDS011;54618;52.018;5.576;2024-03-08T06:24:01;29.33;;;12.40;;
67819;SDS011;54618;52.018;5.576;2024-03-08T06:26:27;34.28;;;13.98;;
67819;SDS011;54618;52.018;5.576;2024-03-08T06:28:56;28.95;;;13.52;;
67819;SDS011;54618;52.018;5.576;2024-03-08T06:31:22;31.60;;;14.57;;
67819;SDS011;54618;52.018;5.576;2024-03-08T06:33:47;32.13;;;12.95;;
67819;SDS011;54618;52.018;5.576;2024-03-08T06:36:16;31.10;;;12.98;;
67819;SDS011;54618;52.018;5.576;2024-03-08T06:38:44;30.73;;;13.52;;
67819;SDS011;54618;52.018;5.576;2024-03-08T06:41:11;31.90;;;13.75;;
67819;SDS011;54618;52.018;5.576;2024-03-08T06:43:46;31.52;;;14.50;;
67819;SDS011;54618;52.018;5.576;2024-03-08T06:46:14;40.83;;;13.82;;
67819;SDS011;54618;52.018;5.576;2024-03-08T06:48:40;29.67;;;13.75;;
67819;SDS011;54618;52.018;5.576;2024-03-08T06:51:06;30.38;;;13.57;;
67819;SDS011;54618;52.018;5.576;2024-03-08T06:53:32;32.53;;;13.82;;
67819;SDS011;54618;52.018;5.576;2024-03-08T06:56:00;29.92;;;13.10;;
67819;SDS011;54618;52.018;5.576;2024-03-08T06:58:26;28.98;;;12.88;;
67819;SDS011;54618;52.018;5.576;2024-03-08T07:00:52;31.20;;;13.82;;
67819;SDS011;54618;52.018;5.576;2024-03-08T07:03:18;32.70;;;13.30;;
67819;SDS011;54618;52.018;5.576;2024-03-08T07:05:44;30.10;;;13.93;;
67819;SDS011;54618;52.018;5.576;2024-03-08T07:08:10;31.02;;;13.70;;
67819;SDS011;54618;52.018;5.576;2024-03-08T07:10:39;33.10;;;14.05;;
67819;SDS011;54618;52.018;5.576;2024-03-08T07:13:06;31.27;;;14.25;;
67819;SDS011;54618;52.018;5.576;2024-03-08T07:15:32;31.17;;;13.77;;
67819;SDS011;54618;52.018;5.576;2024-03-08T07:17:58;33.92;;;13.82;;
67819;SDS011;54618;52.018;5.576;2024-03-08T07:20:24;31.83;;;13.75;;
67819;SDS011;54618;52.018;5.576;2024-03-08T07:22:50;32.40;;;13.73;;
67819;SDS011;54618;52.018;5.576;2024-03-08T07:25:16;31.45;;;14.23;;
67819;SDS011;54618;52.018;5.576;2024-03-08T07:27:48;32.70;;;14.50;;
67819;SDS011;54618;52.018;5.576;2024-03-08T07:30:17;30.63;;;13.77;;
67819;SDS011;54618;52.018;5.576;2024-03-08T07:33:02;33.75;;;13.27;;
67819;SDS011;54618;52.018;5.576;2024-03-08T07:35:28;33.30;;;14.05;;
67819;SDS011;54618;52.018;5.576;2024-03-08T07:37:54;31.55;;;13.38;;
67819;SDS011;54618;52.018;5.576;2024-03-08T07:40:23;32.28;;;14.07;;
67819;SDS011;54618;52.018;5.576;2024-03-08T07:42:49;30.77;;;13.85;;
67819;SDS011;54618;52.018;5.576;2024-03-08T07:45:16;32.78;;;14.30;;
67819;SDS011;54618;52.018;5.576;2024-03-08T07:47:42;28.60;;;14.52;;
67819;SDS011;54618;52.018;5.576;2024-03-08T07:50:08;28.02;;;14.10;;
67819;SDS011;54618;52.018;5.576;2024-03-08T07:52:34;34.70;;;14.13;;
67819;SDS011;54618;52.018;5.576;2024-03-08T07:55:01;31.00;;;13.25;;
67819;SDS011;54618;52.018;5.576;2024-03-08T07:57:28;30.40;;;13.80;;
67819;SDS011;54618;52.018;5.576;2024-03-08T07:59:55;31.70;;;13.57;;
67819;SDS011;54618;52.018;5.576;2024-03-08T08:02:21;28.15;;;13.80;;
67819;SDS011;54618;52.018;5.576;2024-03-08T08:04:46;28.88;;;13.30;;
67819;SDS011;54618;52.018;5.576;2024-03-08T08:07:12;30.13;;;14.45;;
67819;SDS011;54618;52.018;5.576;2024-03-08T08:09:39;29.13;;;14.05;;
67819;SDS011;54618;52.018;5.576;2024-03-08T08:12:05;28.25;;;14.07;;
67819;SDS011;54618;52.018;5.576;2024-03-08T08:14:32;27.75;;;13.90;;
67819;SDS011;54618;52.018;5.576;2024-03-08T08:16:57;30.45;;;14.52;;
67819;SDS011;54618;52.018;5.576;2024-03-08T08:19:28;28.75;;;13.73;;
67819;SDS011;54618;52.018;5.576;2024-03-08T08:21:54;29.77;;;15.10;;
67819;SDS011;54618;52.018;5.576;2024-03-08T08:24:19;26.58;;;13.43;;
67819;SDS011;54618;52.018;5.576;2024-03-08T08:26:46;28.35;;;13.13;;
67819;SDS011;54618;52.018;5.576;2024-03-08T08:29:12;30.33;;;13.32;;
67819;SDS011;54618;52.018;5.576;2024-03-08T08:31:38;32.22;;;14.70;;
67819;SDS011;54618;52.018;5.576;2024-03-08T08:34:04;32.10;;;14.32;;
67819;SDS011;54618;52.018;5.576;2024-03-08T08:36:31;29.92;;;13.95;;
67819;SDS011;54618;52.018;5.576;2024-03-08T08:38:57;31.17;;;13.38;;
67819;SDS011;54618;52.018;5.576;2024-03-08T08:41:24;29.42;;;14.25;;
67819;SDS011;54618;52.018;5.576;2024-03-08T08:43:50;34.47;;;14.60;;
67819;SDS011;54618;52.018;5.576;2024-03-08T08:46:18;27.15;;;13.05;;
67819;SDS011;54618;52.018;5.576;2024-03-08T08:48:44;26.13;;;13.45;;
67819;SDS011;54618;52.018;5.576;2024-03-08T08:51:11;28.95;;;13.15;;
67819;SDS011;54618;52.018;5.576;2024-03-08T08:53:40;27.90;;;14.30;;
67819;SDS011;54618;52.018;5.576;2024-03-08T08:56:10;27.20;;;12.80;;
67819;SDS011;54618;52.018;5.576;2024-03-08T08:58:38;28.52;;;13.93;;
67819;SDS011;54618;52.018;5.576;2024-03-08T09:01:05;27.40;;;13.43;;
67819;SDS011;54618;52.018;5.576;2024-03-08T09:03:30;28.50;;;13.70;;
67819;SDS011;54618;52.018;5.576;2024-03-08T09:05:56;24.85;;;12.65;;
67819;SDS011;54618;52.018;5.576;2024-03-08T09:08:22;26.25;;;13.20;;
67819;SDS011;54618;52.018;5.576;2024-03-08T09:10:48;25.08;;;13.27;;
67819;SDS011;54618;52.018;5.576;2024-03-08T09:13:13;28.08;;;13.40;;
67819;SDS011;54618;52.018;5.576;2024-03-08T09:15:39;26.15;;;12.98;;
67819;SDS011;54618;52.018;5.576;2024-03-08T09:18:05;26.40;;;12.88;;
67819;SDS011;54618;52.018;5.576;2024-03-08T09:20:31;26.77;;;13.45;;
67819;SDS011;54618;52.018;5.576;2024-03-08T09:22:57;26.55;;;12.98;;
67819;SDS011;54618;52.018;5.576;2024-03-08T09:25:23;27.05;;;12.48;;
67819;SDS011;54618;52.018;5.576;2024-03-08T09:27:49;28.10;;;13.10;;
67819;SDS011;54618;52.018;5.576;2024-03-08T09:30:15;26.35;;;12.77;;
67819;SDS011;54618;52.018;5.576;2024-03-08T09:32:40;25.17;;;13.20;;
67819;SDS011;54618;52.018;5.576;2024-03-08T09:35:08;23.67;;;13.13;;
67819;SDS011;54618;52.018;5.576;2024-03-08T09:37:34;24.35;;;12.18;;
67819;SDS011;54618;52.018;5.576;2024-03-08T09:39:59;25.08;;;12.50;;
67819;SDS011;54618;52.018;5.576;2024-03-08T09:42:29;22.40;;;12.05;;
67819;SDS011;54618;52.018;5.576;2024-03-08T09:44:56;25.05;;;12.50;;
67819;SDS011;54618;52.018;5.576;2024-03-08T09:47:23;26.02;;;12.80;;
67819;SDS011;54618;52.018;5.576;2024-03-08T09:49:54;23.92;;;12.25;;
67819;SDS011;54618;52.018;5.576;2024-03-08T09:52:20;24.65;;;12.48;;
67819;SDS011;54618;52.018;5.576;2024-03-08T09:54:46;24.90;;;12.73;;
67819;SDS011;54618;52.018;5.576;2024-03-08T09:57:11;27.60;;;12.23;;
67819;SDS011;54618;52.018;5.576;2024-03-08T09:59:37;25.25;;;12.35;;
67819;SDS011;54618;52.018;5.576;2024-03-08T10:02:03;27.02;;;12.65;;
67819;SDS011;54618;52.018;5.576;2024-03-08T10:04:29;27.40;;;13.23;;
67819;SDS011;54618;52.018;5.576;2024-03-08T10:06:58;22.02;;;11.63;;
67819;SDS011;54618;52.018;5.576;2024-03-08T10:09:24;25.02;;;12.52;;
67819;SDS011;54618;52.018;5.576;2024-03-08T10:11:55;26.70;;;12.35;;
67819;SDS011;54618;52.018;5.576;2024-03-08T10:14:22;24.48;;;11.05;;
67819;SDS011;54618;52.018;5.576;2024-03-08T10:16:49;26.13;;;11.90;;
67819;SDS011;54618;52.018;5.576;2024-03-08T10:19:14;22.58;;;11.85;;
67819;SDS011;54618;52.018;5.576;2024-03-08T10:21:48;26.35;;;12.60;;
67819;SDS011;54618;52.018;5.576;2024-03-08T10:24:22;23.58;;;11.95;;
67819;SDS011;54618;52.018;5.576;2024-03-08T10:26:51;22.92;;;11.73;;
67819;SDS011;54618;52.018;5.576;2024-03-08T10:29:18;25.40;;;12.93;;
67819;SDS011;54618;52.018;5.576;2024-03-08T10:31:44;25.75;;;11.52;;
67819;SDS011;54618;52.018;5.576;2024-03-08T10:34:10;23.38;;;12.00;;
67819;SDS011;54618;52.018;5.576;2024-03-08T10:36:36;25.17;;;12.00;;
67819;SDS011;54618;52.018;5.576;2024-03-08T10:39:06;21.08;;;11.63;;
67819;SDS011;54618;52.018;5.576;2024-03-08T10:41:42;22.95;;;12.07;;
67819;SDS011;54618;52.018;5.576;2024-03-08T10:44:19;20.92;;;12.15;;
67819;SDS011;54618;52.018;5.576;2024-03-08T10:47:17;22.30;;;11.57;;
67819;SDS011;54618;52.018;5.576;2024-03-08T10:49:51;21.70;;;11.30;;
67819;SDS011;54618;52.018;5.576;2024-03-08T10:52:17;18.48;;;10.52;;
67819;SDS011;54618;52.018;5.576;2024-03-08T10:54:44;20.65;;;10.57;;
67819;SDS011;54618;52.018;5.576;2024-03-08T10:57:12;21.25;;;10.50;;
67819;SDS011;54618;52.018;5.576;2024-03-08T10:59:40;21.90;;;10.23;;
67819;SDS011;54618;52.018;5.576;2024-03-08T11:02:08;19.10;;;10.88;;
67819;SDS011;54618;52.018;5.576;2024-03-08T11:04:37;22.08;;;10.50;;
67819;SDS011;54618;52.018;5.576;2024-03-08T11:07:03;22.15;;;11.60;;
67819;SDS011;54618;52.018;5.576;2024-03-08T11:09:33;22.10;;;11.82;;
67819;SDS011;54618;52.018;5.576;2024-03-08T11:14:50;32.03;;;11.02;;
67819;SDS011;54618;52.018;5.576;2024-03-08T11:17:25;20.10;;;10.30;;
67819;SDS011;54618;52.018;5.576;2024-03-08T11:20:11;18.95;;;11.20;;
67819;SDS011;54618;52.018;5.576;2024-03-08T11:22:41;19.17;;;10.13;;
67819;SDS011;54618;52.018;5.576;2024-03-08T11:25:30;17.92;;;10.30;;
67819;SDS011;54618;52.018;5.576;2024-03-08T11:30:42;17.67;;;9.52;;
67819;SDS011;54618;52.018;5.576;2024-03-08T11:33:15;23.02;;;10.35;;
67819;SDS011;54618;52.018;5.576;2024-03-08T11:35:42;20.88;;;10.18;;
67819;SDS011;54618;52.018;5.576;2024-03-08T11:38:10;18.13;;;10.27;;
67819;SDS011;54618;52.018;5.576;2024-03-08T11:40:38;25.08;;;9.60;;
67819;SDS011;54618;52.018;5.576;2024-03-08T11:43:05;20.13;;;10.15;;
67819;SDS011;54618;52.018;5.576;2024-03-08T11:45:35;18.83;;;9.73;;
67819;SDS011;54618;52.018;5.576;2024-03-08T11:48:06;19.25;;;9.95;;
67819;SDS011;54618;52.018;5.576;2024-03-08T11:50:32;20.20;;;10.07;;
67819;SDS011;54618;52.018;5.576;2024-03-08T11:53:03;20.38;;;10.18;;
67819;SDS011;54618;52.018;5.576;2024-03-08T11:55:32;15.48;;;9.40;;
67819;SDS011;54618;52.018;5.576;2024-03-08T11:58:05;31.58;;;10.45;;
67819;SDS011;54618;52.018;5.576;2024-03-08T12:00:33;16.92;;;9.98;;
67819;SDS011;54618;52.018;5.576;2024-03-08T12:05:28;22.05;;;10.18;;
67819;SDS011;54618;52.018;5.576;2024-03-08T12:07:59;18.15;;;9.60;;
67819;SDS011;54618;52.018;5.576;2024-03-08T12:10:25;21.60;;;9.63;;
67819;SDS011;54618;52.018;5.576;2024-03-08T12:12:52;18.92;;;9.55;;
67819;SDS011;54618;52.018;5.576;2024-03-08T12:15:20;31.95;;;10.98;;
67819;SDS011;54618;52.018;5.576;2024-03-08T12:17:48;22.48;;;9.60;;
67819;SDS011;54618;52.018;5.576;2024-03-08T12:20:16;24.67;;;10.07;;
67819;SDS011;54618;52.018;5.576;2024-03-08T12:22:43;17.30;;;9.77;;
67819;SDS011;54618;52.018;5.576;2024-03-08T12:25:10;17.60;;;9.90;;
67819;SDS011;54618;52.018;5.576;2024-03-08T12:27:38;22.60;;;10.80;;
67819;SDS011;54618;52.018;5.576;2024-03-08T12:30:24;15.32;;;9.02;;
67819;SDS011;54618;52.018;5.576;2024-03-08T12:32:54;17.55;;;9.68;;
67819;SDS011;54618;52.018;5.576;2024-03-08T12:35:22;19.65;;;9.65;;
67819;SDS011;54618;52.018;5.576;2024-03-08T12:37:50;16.52;;;9.50;;
67819;SDS011;54618;52.018;5.576;2024-03-08T12:40:27;23.75;;;10.63;;
67819;SDS011;54618;52.018;5.576;2024-03-08T12:42:57;20.10;;;9.60;;
67819;SDS011;54618;52.018;5.576;2024-03-08T12:45:23;24.42;;;10.15;;
67819;SDS011;54618;52.018;5.576;2024-03-08T12:47:55;21.65;;;10.23;;
67819;SDS011;54618;52.018;5.576;2024-03-08T12:50:21;21.27;;;9.57;;
67819;SDS011;54618;52.018;5.576;2024-03-08T12:52:48;17.77;;;10.20;;
67819;SDS011;54618;52.018;5.576;2024-03-08T12:55:14;21.95;;;9.70;;
67819;SDS011;54618;52.018;5.576;2024-03-08T12:57:43;20.45;;;9.73;;
67819;SDS011;54618;52.018;5.576;2024-03-08T13:00:09;19.52;;;9.80;;
67819;SDS011;54618;52.018;5.576;2024-03-08T13:02:40;21.25;;;9.70;;
67819;SDS011;54618;52.018;5.576;2024-03-08T13:05:07;20.33;;;11.15;;
67819;SDS011;54618;52.018;5.576;2024-03-08T13:07:34;17.33;;;9.57;;
67819;SDS011;54618;52.018;5.576;2024-03-08T13:10:02;18.80;;;10.05;;
67819;SDS011;54618;52.018;5.576;2024-03-08T13:12:29;25.25;;;9.80;;
67819;SDS011;54618;52.018;5.576;2024-03-08T13:14:55;18.25;;;9.98;;
67819;SDS011;54618;52.018;5.576;2024-03-08T13:17:21;21.27;;;9.70;;
67819;SDS011;54618;52.018;5.576;2024-03-08T13:19:47;21.17;;;10.75;;
67819;SDS011;54618;52.018;5.576;2024-03-08T13:22:13;24.30;;;10.00;;
67819;SDS011;54618;52.018;5.576;2024-03-08T13:24:41;19.60;;;9.68;;
67819;SDS011;54618;52.018;5.576;2024-03-08T13:27:09;19.48;;;10.98;;
67819;SDS011;54618;52.018;5.576;2024-03-08T13:29:44;16.98;;;10.43;;
67819;SDS011;54618;52.018;5.576;2024-03-08T13:32:12;17.90;;;10.45;;
67819;SDS011;54618;52.018;5.576;2024-03-08T13:34:41;17.42;;;9.80;;
67819;SDS011;54618;52.018;5.576;2024-03-08T13:37:10;20.25;;;11.07;;
67819;SDS011;54618;52.018;5.576;2024-03-08T13:39:36;19.10;;;10.15;;
67819;SDS011;54618;52.018;5.576;2024-03-08T13:42:15;19.70;;;11.23;;
67819;SDS011;54618;52.018;5.576;2024-03-08T13:44:47;18.65;;;9.73;;
67819;SDS011;54618;52.018;5.576;2024-03-08T13:47:15;21.13;;;10.55;;
67819;SDS011;54618;52.018;5.576;2024-03-08T13:49:42;21.80;;;11.48;;
67819;SDS011;54618;52.018;5.576;2024-03-08T13:52:11;18.00;;;10.35;;
67819;SDS011;54618;52.018;5.576;2024-03-08T13:54:40;18.92;;;10.60;;
67819;SDS011;54618;52.018;5.576;2024-03-08T13:57:06;19.45;;;10.63;;
67819;SDS011;54618;52.018;5.576;2024-03-08T13:59:32;18.63;;;10.98;;
67819;SDS011;54618;52.018;5.576;2024-03-08T14:02:00;17.42;;;10.60;;
67819;SDS011;54618;52.018;5.576;2024-03-08T14:04:29;20.83;;;11.13;;
67819;SDS011;54618;52.018;5.576;2024-03-08T14:06:55;21.45;;;11.02;;
67819;SDS011;54618;52.018;5.576;2024-03-08T14:09:24;21.58;;;11.63;;
67819;SDS011;54618;52.018;5.576;2024-03-08T14:11:51;18.63;;;10.55;;
67819;SDS011;54618;52.018;5.576;2024-03-08T14:14:22;19.20;;;10.75;;
67819;SDS011;54618;52.018;5.576;2024-03-08T14:16:48;20.00;;;10.80;;
67819;SDS011;54618;52.018;5.576;2024-03-08T14:19:17;18.42;;;10.93;;
67819;SDS011;54618;52.018;5.576;2024-03-08T14:21:44;21.30;;;10.88;;
67819;SDS011;54618;52.018;5.576;2024-03-08T14:24:09;20.40;;;10.93;;
67819;SDS011;54618;52.018;5.576;2024-03-08T14:26:35;19.77;;;10.48;;
67819;SDS011;54618;52.018;5.576;2024-03-08T14:29:03;18.02;;;10.55;;
67819;SDS011;54618;52.018;5.576;2024-03-08T14:31:30;21.23;;;10.93;;
67819;SDS011;54618;52.018;5.576;2024-03-08T14:33:56;20.02;;;11.40;;
67819;SDS011;54618;52.018;5.576;2024-03-08T14:36:23;20.52;;;11.43;;
67819;SDS011;54618;52.018;5.576;2024-03-08T14:38:50;23.13;;;11.00;;